createdAt,value
2018-10-16T00:01:33.105Z,13.31
2018-10-16T00:04:01.829Z,13.33
2018-10-16T00:06:30.596Z,13.33
2018-10-16T00:08:59.370Z,13.34
2018-10-16T00:11:28.152Z,13.34
2018-10-16T00:13:56.939Z,13.35
2018-10-16T00:16:25.672Z,13.37
2018-10-16T00:18:54.392Z,13.34
2018-10-16T00:21:23.095Z,13.37
2018-10-16T00:23:51.804Z,13.38
2018-10-16T00:26:20.514Z,13.38
2018-10-16T00:28:49.179Z,13.39
2018-10-16T00:31:17.871Z,13.39
2018-10-16T00:33:46.578Z,13.40
2018-10-16T00:36:15.318Z,13.40
2018-10-16T00:38:44.019Z,13.41
2018-10-16T00:41:12.734Z,13.41
2018-10-16T00:43:41.439Z,13.42
2018-10-16T00:46:10.147Z,13.43
2018-10-16T00:48:38.864Z,13.42
2018-10-16T00:51:07.597Z,13.39
2018-10-16T00:53:36.583Z,13.42
2018-10-16T00:56:05.453Z,13.39
2018-10-16T00:58:34.179Z,13.42
2018-10-16T01:01:02.942Z,13.42
2018-10-16T01:03:31.643Z,13.41
2018-10-16T01:06:00.380Z,13.39
2018-10-16T01:08:29.101Z,13.41
2018-10-16T01:10:57.813Z,13.38
2018-10-16T01:13:26.548Z,13.41
2018-10-16T01:15:55.236Z,13.42
2018-10-16T01:18:23.972Z,13.41
2018-10-16T01:20:52.690Z,13.38
2018-10-16T01:23:21.409Z,13.40
2018-10-16T01:25:50.120Z,13.40
2018-10-16T01:28:18.811Z,13.41
2018-10-16T01:30:47.520Z,13.40
2018-10-16T01:33:16.238Z,13.39
2018-10-16T01:35:44.929Z,13.39
2018-10-16T01:38:13.634Z,13.37
2018-10-16T01:40:42.319Z,13.40
2018-10-16T01:43:11.028Z,13.40
2018-10-16T01:45:39.756Z,13.36
2018-10-16T01:48:08.464Z,13.39
2018-10-16T01:50:37.160Z,13.41
2018-10-16T01:53:05.891Z,13.41
2018-10-16T01:55:34.601Z,13.41
2018-10-16T01:58:03.332Z,13.42
2018-10-16T02:00:32.045Z,13.43
2018-10-16T02:03:00.760Z,13.42
2018-10-16T02:05:29.493Z,13.42
2018-10-16T02:07:58.187Z,13.42
2018-10-16T02:10:26.897Z,13.43
2018-10-16T02:12:55.597Z,13.42
2018-10-16T02:15:24.312Z,13.43
2018-10-16T02:17:53.053Z,13.43
2018-10-16T02:20:21.762Z,13.43
2018-10-16T02:22:50.536Z,13.42
2018-10-16T02:25:19.226Z,13.42
2018-10-16T02:27:47.921Z,13.43
2018-10-16T02:30:16.626Z,13.43
2018-10-16T02:32:45.341Z,13.40
2018-10-16T02:35:14.090Z,13.43
2018-10-16T02:37:42.837Z,13.43
2018-10-16T02:40:11.856Z,13.44
2018-10-16T02:42:41.060Z,13.44
2018-10-16T02:45:10.992Z,13.43
2018-10-16T02:47:40.303Z,13.41
2018-10-16T02:50:10.189Z,13.43
2018-10-16T02:52:38.922Z,13.43
2018-10-16T02:55:08.991Z,13.43
2018-10-16T02:57:37.686Z,13.44
2018-10-16T03:00:06.506Z,13.44
2018-10-16T03:02:35.197Z,13.45
2018-10-16T03:05:03.931Z,13.46
2018-10-16T03:07:32.632Z,13.45
2018-10-16T03:10:01.343Z,13.45
2018-10-16T03:12:30.061Z,13.45
2018-10-16T03:14:58.770Z,13.46
2018-10-16T03:17:27.464Z,13.46
2018-10-16T03:19:56.166Z,13.47
2018-10-16T03:22:24.889Z,13.46
2018-10-16T03:24:53.590Z,13.46
2018-10-16T03:27:22.296Z,13.46
2018-10-16T03:29:51.023Z,13.47
2018-10-16T03:32:19.744Z,13.46
2018-10-16T03:34:48.452Z,13.47
2018-10-16T03:37:17.157Z,13.47
2018-10-16T03:39:45.866Z,13.48
2018-10-16T03:42:14.586Z,13.47
2018-10-16T03:44:43.304Z,13.48
2018-10-16T03:47:11.997Z,13.46
2018-10-16T03:49:40.681Z,13.46
2018-10-16T03:52:09.386Z,13.49
2018-10-16T03:54:38.100Z,13.49
2018-10-16T03:57:06.916Z,13.49
2018-10-16T03:59:35.608Z,13.49
2018-10-16T04:02:04.347Z,13.49
2018-10-16T04:04:33.041Z,13.49
2018-10-16T04:07:01.754Z,13.49
2018-10-16T04:09:30.449Z,13.49
2018-10-16T04:11:59.199Z,13.49
2018-10-16T04:14:27.904Z,13.48
2018-10-16T04:16:56.611Z,13.48
2018-10-16T04:19:25.317Z,13.49
2018-10-16T04:21:54.022Z,13.50
2018-10-16T04:24:22.721Z,13.50
2018-10-16T04:26:51.448Z,13.51
2018-10-16T04:29:20.220Z,13.50
2018-10-16T04:31:48.903Z,13.51
2018-10-16T04:34:17.611Z,13.49
2018-10-16T04:36:46.311Z,13.46
2018-10-16T04:39:15.382Z,13.48
2018-10-16T04:41:44.186Z,13.48
2018-10-16T04:44:12.860Z,13.48
2018-10-16T04:46:41.563Z,13.48
2018-10-16T04:49:10.269Z,13.47
2018-10-16T04:51:38.971Z,13.46
2018-10-16T04:54:07.683Z,13.46
2018-10-16T04:56:36.372Z,13.42
2018-10-16T04:59:05.147Z,13.44
2018-10-16T05:01:33.949Z,13.44
2018-10-16T05:04:02.753Z,13.43
2018-10-16T05:06:31.437Z,13.40
2018-10-16T05:09:00.165Z,13.42
2018-10-16T05:11:32.104Z,13.42
2018-10-16T05:14:00.814Z,13.41
2018-10-16T05:16:29.503Z,13.41
2018-10-16T05:18:58.215Z,13.41
2018-10-16T05:21:26.954Z,13.41
2018-10-16T05:23:55.633Z,13.41
2018-10-16T05:26:24.342Z,13.40
2018-10-16T05:28:53.051Z,13.39
2018-10-16T05:31:21.869Z,13.38
2018-10-16T05:33:50.482Z,13.38
2018-10-16T05:36:19.191Z,13.38
2018-10-16T05:38:47.923Z,13.37
2018-10-16T05:41:16.642Z,13.37
2018-10-16T05:43:45.348Z,13.38
2018-10-16T05:46:14.041Z,13.37
2018-10-16T05:48:42.774Z,13.38
2018-10-16T05:51:11.500Z,13.38
2018-10-16T05:53:40.272Z,13.39
2018-10-16T05:56:08.990Z,13.38
2018-10-16T05:58:37.719Z,13.40
2018-10-16T06:01:06.488Z,13.39
2018-10-16T06:03:35.187Z,13.40
2018-10-16T06:06:03.892Z,13.40
2018-10-16T06:08:32.580Z,13.39
2018-10-16T06:11:01.340Z,13.40
2018-10-16T06:13:30.017Z,13.40
2018-10-16T06:15:58.827Z,13.40
2018-10-16T06:18:27.476Z,13.39
2018-10-16T06:20:56.186Z,13.35
2018-10-16T06:23:25.059Z,13.39
2018-10-16T06:25:53.869Z,13.41
2018-10-16T06:28:26.767Z,13.40
2018-10-16T06:30:55.617Z,13.41
2018-10-16T06:33:28.798Z,13.42
2018-10-16T06:35:57.600Z,13.42
2018-10-16T06:38:26.303Z,13.42
2018-10-16T06:40:55.228Z,13.42
2018-10-16T06:43:23.796Z,13.43
2018-10-16T06:45:52.644Z,13.44
2018-10-16T06:48:21.704Z,13.45
2018-10-16T06:50:50.193Z,13.47
2018-10-16T06:53:18.954Z,13.47
2018-10-16T06:55:47.701Z,13.50
2018-10-16T06:58:16.488Z,13.49
2018-10-16T07:00:45.217Z,13.49
2018-10-16T07:03:13.954Z,13.51
2018-10-16T07:05:42.696Z,13.51
2018-10-16T07:08:11.469Z,13.52
2018-10-16T07:10:40.217Z,13.53
2018-10-16T07:13:08.947Z,13.54
2018-10-16T07:15:37.688Z,13.54
2018-10-16T07:18:06.698Z,13.56
2018-10-16T07:20:35.477Z,13.56
2018-10-16T07:23:04.266Z,13.58
2018-10-16T07:25:33.017Z,13.58
2018-10-16T07:28:01.790Z,13.58
2018-10-16T07:30:30.554Z,13.60
2018-10-16T07:32:59.271Z,13.59
2018-10-16T07:35:28.060Z,13.62
2018-10-16T07:37:56.919Z,13.63
2018-10-16T07:40:25.552Z,13.66
2018-10-16T07:42:54.269Z,13.67
2018-10-16T07:45:22.988Z,13.69
2018-10-16T07:47:51.720Z,13.70
2018-10-16T07:50:20.487Z,13.73
2018-10-16T07:52:49.205Z,13.73
2018-10-16T07:55:17.897Z,13.73
2018-10-16T07:57:46.607Z,13.77
2018-10-16T08:00:15.317Z,13.80
2018-10-16T08:02:44.523Z,13.82
2018-10-16T08:05:13.395Z,13.83
2018-10-16T08:07:42.485Z,13.87
2018-10-16T08:10:12.731Z,13.85
2018-10-16T08:12:41.595Z,13.89
2018-10-16T08:15:10.834Z,13.89
2018-10-16T08:17:40.001Z,13.89
2018-10-16T08:20:09.002Z,13.90
2018-10-16T08:22:37.908Z,13.90
2018-10-16T08:25:06.979Z,13.90
2018-10-16T08:27:35.742Z,13.91
2018-10-16T08:30:04.796Z,13.91
2018-10-16T08:32:33.552Z,13.93
2018-10-16T08:35:02.325Z,13.94
2018-10-16T08:39:47.891Z,13.89
2018-10-16T08:42:32.293Z,13.95
2018-10-16T08:45:13.792Z,13.96
2018-10-16T08:47:53.563Z,13.96
2018-10-16T08:50:34.298Z,13.98
2018-10-16T08:53:03.358Z,13.96
2018-10-16T08:55:32.060Z,13.99
2018-10-16T08:58:01.152Z,14.00
2018-10-16T09:00:29.912Z,13.97
2018-10-16T09:02:58.608Z,13.97
2018-10-16T09:05:27.562Z,14.03
2018-10-16T09:07:56.479Z,14.05
2018-10-16T09:10:25.523Z,14.10
2018-10-16T09:12:54.313Z,14.14
2018-10-16T09:15:23.784Z,14.17
2018-10-16T09:17:52.558Z,14.20
2018-10-16T09:20:21.393Z,14.24
2018-10-16T09:22:50.157Z,14.27
2018-10-16T09:25:18.932Z,14.28
2018-10-16T09:27:47.693Z,14.26
2018-10-16T09:30:16.458Z,14.20
2018-10-16T09:32:45.233Z,14.26
2018-10-16T09:35:14.144Z,14.28
2018-10-16T09:37:42.962Z,14.33
2018-10-16T09:40:12.792Z,14.38
2018-10-16T09:42:41.575Z,14.44
2018-10-16T09:45:11.189Z,14.48
2018-10-16T09:47:40.233Z,14.56
2018-10-16T09:50:10.139Z,14.66
2018-10-16T09:52:38.939Z,14.80
2018-10-16T09:55:08.713Z,14.89
2018-10-16T09:57:37.520Z,14.94
2018-10-16T10:00:09.121Z,15.00
2018-10-16T10:02:37.832Z,15.06
2018-10-16T10:05:06.634Z,15.14
2018-10-16T10:07:35.416Z,15.23
2018-10-16T10:10:04.184Z,15.30
2018-10-16T10:12:32.912Z,15.37
2018-10-16T10:15:01.640Z,15.47
2018-10-16T10:17:30.420Z,15.58
2018-10-16T10:19:59.146Z,15.64
2018-10-16T10:22:27.864Z,15.71
2018-10-16T10:24:56.607Z,15.75
2018-10-16T10:27:25.294Z,15.80
2018-10-16T10:29:54.053Z,15.86
2018-10-16T10:32:22.809Z,15.92
2018-10-16T10:34:51.557Z,15.94
2018-10-16T10:37:20.272Z,15.97
2018-10-16T10:39:49.004Z,15.97
2018-10-16T10:42:17.750Z,15.97
2018-10-16T10:44:46.694Z,15.98
2018-10-16T10:47:15.651Z,16.00
2018-10-16T10:49:44.399Z,16.01
2018-10-16T10:52:13.114Z,15.98
2018-10-16T10:54:41.865Z,15.94
2018-10-16T10:57:10.771Z,15.95
2018-10-16T10:59:40.237Z,15.96
2018-10-16T11:02:09.012Z,15.99
2018-10-16T11:04:37.732Z,15.99
2018-10-16T11:07:06.608Z,15.98
2018-10-16T11:09:35.330Z,15.90
2018-10-16T11:12:04.081Z,15.81
2018-10-16T11:14:32.792Z,15.73
2018-10-16T11:17:01.531Z,15.65
2018-10-16T11:19:30.343Z,15.60
2018-10-16T11:21:59.016Z,15.57
2018-10-16T11:24:27.765Z,15.52
2018-10-16T11:26:56.598Z,15.48
2018-10-16T11:29:25.287Z,15.42
2018-10-16T11:31:54.003Z,15.38
2018-10-16T11:34:22.728Z,15.35
2018-10-16T11:36:51.477Z,15.33
2018-10-16T11:39:20.169Z,15.27
2018-10-16T11:41:48.900Z,15.22
2018-10-16T11:44:17.631Z,15.12
2018-10-16T11:46:46.392Z,15.00
2018-10-16T11:49:15.101Z,14.94
2018-10-16T11:51:43.820Z,14.86
2018-10-16T11:54:12.927Z,14.82
2018-10-16T11:56:41.782Z,14.83
2018-10-16T11:59:10.556Z,14.87
2018-10-16T12:01:39.455Z,14.90
2018-10-16T12:04:08.191Z,14.94
2018-10-16T12:06:37.139Z,14.96
2018-10-16T12:09:08.906Z,15.02
2018-10-16T12:11:38.258Z,15.06
2018-10-16T12:14:07.547Z,15.08
2018-10-16T12:16:41.373Z,15.08
2018-10-16T12:19:16.042Z,15.09
2018-10-16T12:21:44.731Z,15.10
2018-10-16T12:24:13.503Z,15.08
2018-10-16T12:26:42.204Z,15.09
2018-10-16T12:29:10.936Z,15.10
2018-10-16T12:31:39.686Z,15.11
2018-10-16T12:34:08.376Z,15.13
2018-10-16T12:36:37.111Z,15.14
2018-10-16T12:39:08.310Z,15.14
2018-10-16T12:41:37.044Z,15.11
2018-10-16T12:44:06.082Z,15.04
2018-10-16T12:46:34.849Z,14.98
2018-10-16T12:49:03.572Z,14.93
2018-10-16T12:51:32.325Z,14.92
2018-10-16T12:54:01.082Z,14.88
2018-10-16T12:56:29.863Z,14.84
2018-10-16T12:58:58.725Z,14.86
2018-10-16T13:01:27.640Z,14.83
2018-10-16T13:03:56.349Z,14.80
2018-10-16T13:06:25.068Z,14.79
2018-10-16T13:08:53.867Z,14.80
2018-10-16T13:11:22.534Z,14.75
2018-10-16T13:13:51.312Z,14.70
2018-10-16T13:16:20.026Z,14.63
2018-10-16T13:18:48.750Z,14.59
2018-10-16T13:21:17.455Z,14.64
2018-10-16T13:23:46.239Z,14.63
2018-10-16T13:26:14.972Z,14.68
2018-10-16T13:28:43.753Z,14.74
2018-10-16T13:31:12.543Z,14.78
2018-10-16T13:33:41.292Z,14.80
2018-10-16T13:36:10.022Z,14.79
2018-10-16T13:38:38.788Z,14.77
2018-10-16T13:41:07.512Z,14.72
2018-10-16T13:43:36.236Z,14.70
2018-10-16T13:46:05.194Z,14.66
2018-10-16T13:48:33.948Z,14.62
2018-10-16T13:51:02.651Z,14.59
2018-10-16T13:53:31.368Z,14.55
2018-10-16T13:56:00.121Z,14.52
2018-10-16T13:58:28.880Z,14.55
2018-10-16T14:00:57.630Z,14.58
2018-10-16T14:03:26.387Z,14.59
2018-10-16T14:05:55.141Z,14.91
2018-10-16T14:08:23.913Z,15.13
2018-10-16T14:10:52.652Z,15.19
2018-10-16T14:13:21.393Z,15.38
2018-10-16T14:15:50.097Z,15.59
2018-10-16T14:18:18.778Z,15.77
2018-10-16T14:20:47.528Z,15.95
2018-10-16T14:23:16.199Z,16.24
2018-10-16T14:25:44.920Z,16.64
2018-10-16T14:28:13.772Z,16.79
2018-10-16T14:30:42.420Z,17.07
2018-10-16T14:33:11.557Z,17.42
2018-10-16T14:35:40.304Z,17.57
2018-10-16T14:38:09.118Z,17.37
2018-10-16T14:40:37.837Z,17.32
2018-10-16T14:43:06.587Z,17.74
2018-10-16T14:45:35.387Z,17.92
2018-10-16T14:48:04.291Z,18.06
2018-10-16T14:50:32.944Z,18.01
2018-10-16T14:53:01.668Z,17.85
2018-10-16T14:55:30.422Z,18.00
2018-10-16T14:57:59.162Z,18.23
2018-10-16T15:00:27.853Z,18.27
2018-10-16T15:02:56.552Z,18.07
2018-10-16T15:05:25.590Z,17.86
2018-10-16T15:07:54.476Z,17.90
2018-10-16T15:10:23.266Z,18.24
2018-10-16T15:12:51.937Z,18.35
2018-10-16T15:15:20.692Z,18.30
2018-10-16T15:17:49.429Z,18.02
2018-10-16T15:20:18.130Z,18.07
2018-10-16T15:22:46.900Z,18.03
2018-10-16T15:25:15.660Z,18.03
2018-10-16T15:27:44.371Z,18.10
2018-10-16T15:30:13.101Z,18.08
2018-10-16T15:32:41.967Z,18.06
2018-10-16T15:35:11.468Z,18.04
2018-10-16T15:37:40.315Z,18.15
2018-10-16T15:40:10.484Z,18.26
2018-10-16T15:42:39.203Z,18.27
2018-10-16T15:45:09.543Z,18.26
2018-10-16T15:47:38.361Z,18.20
2018-10-16T15:50:07.745Z,18.12
2018-10-16T15:52:36.491Z,18.07
2018-10-16T15:55:05.918Z,18.03
2018-10-16T15:57:34.691Z,17.95
2018-10-16T16:00:03.582Z,17.87
2018-10-16T16:02:32.444Z,17.68
2018-10-16T16:05:01.107Z,17.49
2018-10-16T16:07:29.946Z,17.31
2018-10-16T16:09:58.753Z,17.28
2018-10-16T16:12:27.506Z,17.40
2018-10-16T16:14:56.263Z,17.49
2018-10-16T16:17:25.081Z,17.40
2018-10-16T16:19:53.873Z,17.42
2018-10-16T16:22:22.772Z,17.53
2018-10-16T16:24:51.528Z,17.64
2018-10-16T16:27:20.330Z,17.67
2018-10-16T16:29:49.087Z,17.65
2018-10-16T16:32:18.079Z,17.58
2018-10-16T16:34:46.845Z,17.51
2018-10-16T16:37:15.585Z,17.38
2018-10-16T16:39:44.381Z,17.26
2018-10-16T16:42:13.109Z,17.15
2018-10-16T16:44:41.890Z,17.02
2018-10-16T16:47:10.775Z,16.84
2018-10-16T16:49:39.481Z,16.72
2018-10-16T16:52:08.226Z,16.58
2018-10-16T16:54:36.970Z,16.42
2018-10-16T16:57:05.920Z,16.27
2018-10-16T16:59:34.734Z,16.13
2018-10-16T17:02:03.647Z,16.00
2018-10-16T17:04:32.488Z,15.85
2018-10-16T17:07:01.171Z,15.72
2018-10-16T17:09:30.273Z,15.58
2018-10-16T17:11:59.138Z,15.45
2018-10-16T17:14:28.036Z,15.34
2018-10-16T17:16:56.817Z,15.23
2018-10-16T17:19:25.572Z,15.14
2018-10-16T17:21:54.691Z,15.05
2018-10-16T17:24:23.510Z,14.97
2018-10-16T17:26:52.426Z,14.89
2018-10-16T17:29:21.105Z,14.81
2018-10-16T17:31:50.502Z,14.73
2018-10-16T17:34:19.380Z,14.64
2018-10-16T17:36:48.131Z,14.55
2018-10-16T17:39:16.956Z,14.48
2018-10-16T17:41:45.688Z,14.41
2018-10-16T17:44:14.426Z,14.36
2018-10-16T17:46:43.199Z,14.30
2018-10-16T17:49:11.967Z,14.23
2018-10-16T17:51:40.691Z,14.18
2018-10-16T17:54:09.487Z,14.11
2018-10-16T17:56:38.253Z,14.08
2018-10-16T17:59:06.977Z,14.03
2018-10-16T18:01:35.855Z,14.00
2018-10-16T18:04:04.647Z,14.00
2018-10-16T18:06:33.455Z,13.97
2018-10-16T18:09:02.316Z,13.91
2018-10-16T18:11:31.109Z,13.94
2018-10-16T18:13:59.893Z,13.92
2018-10-16T18:16:28.656Z,13.89
2018-10-16T18:18:57.417Z,13.86
2018-10-16T18:21:26.166Z,13.84
2018-10-16T18:23:54.950Z,13.82
2018-10-16T18:26:23.916Z,13.81
2018-10-16T18:28:52.826Z,13.80
2018-10-16T18:31:21.610Z,13.75
2018-10-16T18:33:50.371Z,13.78
2018-10-16T18:36:19.160Z,13.76
2018-10-16T18:38:47.978Z,13.75
2018-10-16T18:41:16.730Z,13.75
2018-10-16T18:43:45.660Z,13.72
2018-10-16T18:46:14.526Z,13.74
2018-10-16T18:48:43.516Z,13.70
2018-10-16T18:51:12.423Z,13.73
2018-10-16T18:53:41.093Z,13.74
2018-10-16T18:56:09.862Z,13.73
2018-10-16T18:58:38.603Z,13.74
2018-10-16T19:01:07.330Z,13.74
2018-10-16T19:03:36.058Z,13.75
2018-10-16T19:06:04.797Z,13.76
2018-10-16T19:08:33.583Z,13.76
2018-10-16T19:11:02.344Z,13.78
2018-10-16T19:13:31.157Z,13.79
2018-10-16T19:15:59.937Z,13.79
2018-10-16T19:18:28.667Z,13.81
2018-10-16T19:20:57.446Z,13.82
2018-10-16T19:23:26.116Z,13.81
2018-10-16T19:25:54.852Z,13.84
2018-10-16T19:28:23.598Z,13.80
2018-10-16T19:30:52.353Z,13.84
2018-10-16T19:33:21.047Z,13.83
2018-10-16T19:35:49.788Z,13.84
2018-10-16T19:38:18.497Z,13.85
2018-10-16T19:40:47.945Z,13.84
2018-10-16T19:43:16.677Z,13.83
2018-10-16T19:45:45.496Z,13.87
2018-10-16T19:48:14.170Z,13.88
2018-10-16T19:50:42.868Z,13.88
2018-10-16T19:53:11.569Z,13.87
2018-10-16T19:55:40.249Z,13.87
2018-10-16T19:58:08.940Z,13.88
2018-10-16T20:00:37.700Z,13.89
2018-10-16T20:03:06.510Z,13.89
2018-10-16T20:05:35.223Z,13.87
2018-10-16T20:08:04.020Z,13.87
2018-10-16T20:10:32.774Z,13.85
2018-10-16T20:13:01.481Z,13.84
2018-10-16T20:15:30.269Z,13.83
2018-10-16T20:17:58.940Z,13.79
2018-10-16T20:20:27.628Z,13.78
2018-10-16T20:22:56.396Z,13.79
2018-10-16T20:25:25.185Z,13.78
2018-10-16T20:27:53.881Z,13.73
2018-10-16T20:30:22.576Z,13.78
2018-10-16T20:32:51.260Z,13.79
2018-10-16T20:35:19.952Z,13.76
2018-10-16T20:37:48.661Z,13.75
2018-10-16T20:40:17.447Z,13.78
2018-10-16T20:42:46.156Z,13.78
2018-10-16T20:45:14.870Z,13.79
2018-10-16T20:47:43.620Z,13.77
2018-10-16T20:50:12.334Z,13.78
2018-10-16T20:52:41.034Z,13.78
2018-10-16T20:55:10.263Z,13.78
2018-10-16T20:57:38.975Z,13.74
2018-10-16T21:00:08.232Z,13.76
2018-10-16T21:02:37.414Z,13.76
2018-10-16T21:05:07.302Z,13.76
2018-10-16T21:07:35.914Z,13.77
2018-10-16T21:10:04.860Z,13.76
2018-10-16T21:12:33.625Z,13.78
2018-10-16T21:15:02.367Z,13.77
2018-10-16T21:17:31.108Z,13.76
2018-10-16T21:19:59.797Z,13.76
2018-10-16T21:22:28.517Z,13.76
2018-10-16T21:24:57.218Z,13.75
2018-10-16T21:27:25.931Z,13.71
2018-10-16T21:29:54.636Z,13.75
2018-10-16T21:32:23.333Z,13.74
2018-10-16T21:34:52.032Z,13.74
2018-10-16T21:37:20.732Z,13.77
2018-10-16T21:39:49.452Z,13.71
2018-10-16T21:42:18.153Z,13.76
2018-10-16T21:44:46.837Z,13.77
2018-10-16T21:47:15.609Z,13.77
2018-10-16T21:49:44.220Z,13.74
2018-10-16T21:52:12.902Z,13.77
2018-10-16T21:54:41.599Z,13.77
2018-10-16T21:57:10.272Z,13.78
2018-10-16T21:59:39.081Z,13.78
2018-10-16T22:02:13.024Z,13.78
2018-10-16T22:04:41.745Z,13.77
2018-10-16T22:07:10.651Z,13.78
2018-10-16T22:09:39.290Z,13.78
2018-10-16T22:12:08.005Z,13.77
2018-10-16T22:14:36.729Z,13.78
2018-10-16T22:17:05.724Z,13.79
2018-10-16T22:19:34.425Z,13.79
2018-10-16T22:22:03.111Z,13.79
2018-10-16T22:24:31.776Z,13.79
2018-10-16T22:27:00.457Z,13.75
2018-10-16T22:29:29.200Z,13.80
2018-10-16T22:31:57.856Z,13.80
2018-10-16T22:34:26.539Z,13.80
2018-10-16T22:36:55.256Z,13.81
2018-10-16T22:39:23.938Z,13.82
2018-10-16T22:41:52.636Z,13.82
2018-10-16T22:44:21.316Z,13.83
2018-10-16T22:46:50.051Z,13.84
2018-10-16T22:49:18.735Z,13.83
2018-10-16T22:51:47.420Z,13.83
2018-10-16T22:54:16.100Z,13.83
2018-10-16T22:56:44.801Z,13.83
2018-10-16T22:59:13.496Z,13.83
2018-10-16T23:01:42.177Z,13.83
2018-10-16T23:04:10.869Z,13.84
2018-10-16T23:06:39.543Z,13.82
2018-10-16T23:09:09.209Z,13.84
2018-10-16T23:11:38.020Z,13.84
2018-10-16T23:14:06.873Z,13.83
2018-10-16T23:16:35.631Z,13.83
2018-10-16T23:19:04.414Z,13.84
2018-10-16T23:21:33.059Z,13.80
2018-10-16T23:24:01.775Z,13.85
2018-10-16T23:26:30.467Z,13.83
2018-10-16T23:28:59.207Z,13.84
2018-10-16T23:31:27.901Z,13.84
2018-10-16T23:33:56.583Z,13.84
2018-10-16T23:36:25.325Z,13.84
2018-10-16T23:38:54.003Z,13.84
2018-10-16T23:41:22.733Z,13.84
2018-10-16T23:43:51.437Z,13.83
2018-10-16T23:46:20.157Z,13.80
2018-10-16T23:48:48.841Z,13.82
2018-10-16T23:51:17.520Z,13.79
2018-10-16T23:53:46.215Z,13.83
2018-10-16T23:56:14.880Z,13.83
2018-10-16T23:58:43.573Z,13.83
